createdAt,value
2024-01-18T00:02:12.066Z,21.05
2024-01-18T00:04:38.696Z,19.85
2024-01-18T00:07:05.415Z,19.33
2024-01-18T00:09:32.194Z,20.38
2024-01-18T00:11:58.847Z,19.60
2024-01-18T00:14:25.377Z,20.00
2024-01-18T00:16:51.845Z,20.15
2024-01-18T00:19:18.464Z,21.67
2024-01-18T00:21:45.138Z,20.85
2024-01-18T00:24:11.766Z,20.20
2024-01-18T00:26:38.349Z,20.88
2024-01-18T00:29:04.923Z,21.73
2024-01-18T00:31:31.421Z,20.40
2024-01-18T00:34:00.820Z,20.05
2024-01-18T00:36:28.615Z,19.23
2024-01-18T00:38:55.724Z,19.48
2024-01-18T00:41:22.412Z,19.25
2024-01-18T00:43:49.617Z,19.73
2024-01-18T00:46:20.446Z,18.95
2024-01-18T00:48:47.159Z,19.15
2024-01-18T00:51:13.944Z,19.08
2024-01-18T00:53:40.402Z,18.98
2024-01-18T00:56:11.193Z,20.70
2024-01-18T00:58:38.592Z,19.33
2024-01-18T01:01:05.124Z,18.50
2024-01-18T01:03:31.835Z,18.30
2024-01-18T01:05:58.407Z,18.65
2024-01-18T01:08:24.940Z,17.83
2024-01-18T01:10:51.470Z,18.48
2024-01-18T01:13:17.950Z,19.15
2024-01-18T01:15:44.488Z,19.48
2024-01-18T01:18:12.626Z,19.20
2024-01-18T01:20:39.309Z,18.50
2024-01-18T01:23:06.004Z,19.17
2024-01-18T01:25:32.928Z,18.70
2024-01-18T01:27:59.454Z,18.02
2024-01-18T01:30:26.106Z,17.95
2024-01-18T01:32:52.779Z,18.17
2024-01-18T01:35:19.404Z,18.05
2024-01-18T01:37:45.980Z,17.25
2024-01-18T01:40:12.634Z,18.50
2024-01-18T01:42:39.181Z,18.40
2024-01-18T01:45:06.553Z,17.67
2024-01-18T01:47:33.208Z,17.58
2024-01-18T01:50:00.422Z,17.80
2024-01-18T01:52:29.127Z,17.60
2024-01-18T01:54:57.245Z,17.77
2024-01-18T01:57:25.810Z,17.13
2024-01-18T01:59:52.493Z,16.95
2024-01-18T02:02:23.155Z,16.35
2024-01-18T02:04:49.902Z,17.67
2024-01-18T02:07:16.536Z,17.80
2024-01-18T02:09:43.694Z,17.52
2024-01-18T02:14:38.114Z,17.08
2024-01-18T02:17:05.267Z,17.23
2024-01-18T02:19:32.190Z,16.10
2024-01-18T02:22:00.390Z,16.40
2024-01-18T02:24:34.836Z,17.05
2024-01-18T02:27:01.415Z,16.80
2024-01-18T02:29:27.952Z,15.95
2024-01-18T02:31:54.475Z,16.50
2024-01-18T02:34:21.148Z,16.92
2024-01-18T02:36:48.065Z,17.23
2024-01-18T02:39:14.694Z,15.00
2024-01-18T02:41:42.457Z,15.80
2024-01-18T02:44:09.430Z,15.57
2024-01-18T02:46:35.962Z,16.40
2024-01-18T02:49:02.446Z,16.65
2024-01-18T02:51:29.110Z,14.93
2024-01-18T02:53:55.711Z,14.82
2024-01-18T02:56:22.725Z,14.55
2024-01-18T02:58:49.314Z,16.55
2024-01-18T03:01:15.932Z,16.83
2024-01-18T03:03:42.580Z,15.63
2024-01-18T03:06:09.255Z,15.35
2024-01-18T03:08:37.445Z,15.77
2024-01-18T03:11:04.062Z,15.98
2024-01-18T03:13:30.623Z,15.75
2024-01-18T03:15:57.128Z,15.10
2024-01-18T03:18:23.673Z,16.70
2024-01-18T03:20:50.176Z,15.38
2024-01-18T03:23:17.527Z,16.63
2024-01-18T03:25:44.205Z,15.88
2024-01-18T03:28:10.822Z,15.50
2024-01-18T03:30:37.435Z,15.55
2024-01-18T03:33:04.389Z,15.20
2024-01-18T03:35:30.986Z,15.05
2024-01-18T03:37:57.501Z,15.27
2024-01-18T03:40:24.120Z,14.48
2024-01-18T03:42:50.653Z,13.50
2024-01-18T03:45:18.210Z,15.02
2024-01-18T03:47:47.980Z,15.38
2024-01-18T03:50:15.156Z,14.68
2024-01-18T03:52:41.744Z,14.57
2024-01-18T03:55:08.472Z,15.52
2024-01-18T03:57:35.245Z,15.82
2024-01-18T04:00:02.410Z,16.33
2024-01-18T04:02:29.062Z,14.80
2024-01-18T04:04:55.588Z,14.57
2024-01-18T04:07:23.403Z,13.73
2024-01-18T04:09:50.051Z,12.82
2024-01-18T04:12:17.501Z,14.45
2024-01-18T04:14:46.960Z,15.38
2024-01-18T04:17:13.589Z,13.60
2024-01-18T04:19:40.773Z,14.55
2024-01-18T04:22:07.893Z,14.48
2024-01-18T04:24:35.074Z,15.13
2024-01-18T04:27:01.721Z,13.98
2024-01-18T04:29:29.643Z,14.05
2024-01-18T04:31:56.660Z,15.27
2024-01-18T04:34:23.177Z,14.95
2024-01-18T04:36:49.692Z,13.65
2024-01-18T04:39:16.363Z,14.70
2024-01-18T04:41:42.927Z,12.93
2024-01-18T04:44:09.471Z,13.05
2024-01-18T04:46:36.167Z,13.70
2024-01-18T04:49:03.811Z,14.13
2024-01-18T04:51:30.480Z,13.57
2024-01-18T04:53:57.068Z,13.98
2024-01-18T04:56:23.827Z,13.05
2024-01-18T04:58:50.515Z,12.40
2024-01-18T05:01:17.056Z,14.13
2024-01-18T05:03:43.709Z,13.02
2024-01-18T05:06:11.100Z,13.07
2024-01-18T05:11:04.484Z,12.25
2024-01-18T05:13:31.024Z,14.00
2024-01-18T05:16:00.518Z,12.82
2024-01-18T05:18:27.181Z,12.43
2024-01-18T05:20:53.683Z,12.85
2024-01-18T05:23:20.147Z,12.00
2024-01-18T05:25:46.751Z,12.65
2024-01-18T05:28:13.288Z,11.98
2024-01-18T05:30:39.875Z,11.02
2024-01-18T05:33:06.535Z,12.68
2024-01-18T05:35:33.030Z,12.48
2024-01-18T05:37:59.539Z,11.48
2024-01-18T05:40:26.213Z,12.45
2024-01-18T05:42:53.045Z,12.20
2024-01-18T05:45:19.656Z,17.50
2024-01-18T05:47:46.187Z,18.80
2024-01-18T05:50:12.995Z,13.32
2024-01-18T05:52:39.584Z,12.70
2024-01-18T05:55:06.244Z,20.00
2024-01-18T05:57:33.306Z,14.88
2024-01-18T05:59:59.908Z,13.60
2024-01-18T06:02:26.425Z,13.27
2024-01-18T06:04:53.007Z,13.23
2024-01-18T06:07:19.808Z,13.48
2024-01-18T06:09:46.560Z,12.57
2024-01-18T06:12:13.088Z,15.65
2024-01-18T06:14:39.554Z,12.30
2024-01-18T06:17:06.179Z,12.93
2024-01-18T06:19:33.545Z,12.38
2024-01-18T06:24:29.000Z,13.70
2024-01-18T06:26:56.431Z,12.68
2024-01-18T06:29:27.832Z,13.10
2024-01-18T06:31:54.662Z,12.18
2024-01-18T06:34:21.485Z,12.73
2024-01-18T06:36:48.202Z,12.27
2024-01-18T06:39:17.111Z,14.05
2024-01-18T06:41:44.069Z,13.25
2024-01-18T06:44:11.267Z,14.98
2024-01-18T06:46:37.733Z,15.68
2024-01-18T06:49:04.763Z,18.63
2024-01-18T06:51:31.414Z,14.93
2024-01-18T06:53:58.025Z,13.75
2024-01-18T06:56:24.560Z,13.98
2024-01-18T06:58:51.342Z,16.13
2024-01-18T07:01:18.390Z,15.95
2024-01-18T07:03:45.092Z,15.20
2024-01-18T07:06:13.080Z,14.23
2024-01-18T07:08:39.732Z,14.10
2024-01-18T07:11:06.339Z,14.65
2024-01-18T07:13:33.138Z,16.00
2024-01-18T07:15:59.724Z,16.05
2024-01-18T07:18:27.200Z,15.05
2024-01-18T07:23:20.318Z,17.40
2024-01-18T07:25:47.812Z,17.02
2024-01-18T07:30:41.256Z,21.45
2024-01-18T07:33:08.020Z,19.77
2024-01-18T07:35:34.604Z,17.63
2024-01-18T07:38:01.101Z,17.10
2024-01-18T07:40:27.796Z,18.55
2024-01-18T07:42:55.136Z,18.13
2024-01-18T07:47:49.493Z,16.30
2024-01-18T07:50:29.100Z,17.77
2024-01-18T07:53:01.205Z,19.63
2024-01-18T07:55:27.950Z,18.45
2024-01-18T07:57:55.331Z,20.83
2024-01-18T08:00:22.351Z,21.42
2024-01-18T08:02:49.003Z,19.95
2024-01-18T08:05:15.634Z,18.60
2024-01-18T08:07:42.213Z,19.85
2024-01-18T08:10:10.034Z,19.88
2024-01-18T08:12:37.684Z,21.73
2024-01-18T08:15:05.724Z,33.85
2024-01-18T08:17:32.304Z,27.00
2024-01-18T08:19:58.930Z,23.83
2024-01-18T08:22:25.565Z,22.17
2024-01-18T08:24:52.253Z,22.42
2024-01-18T08:27:18.841Z,30.45
2024-01-18T08:29:45.442Z,24.13
2024-01-18T08:32:11.973Z,24.95
2024-01-18T08:34:38.525Z,24.73
2024-01-18T08:37:05.936Z,25.38
2024-01-18T08:42:00.610Z,23.20
2024-01-18T08:44:30.120Z,26.13
2024-01-18T08:46:57.214Z,42.10
2024-01-18T08:49:26.665Z,35.60
2024-01-18T08:51:54.311Z,25.85
2024-01-18T08:54:22.318Z,25.33
2024-01-18T08:56:49.517Z,24.20
2024-01-18T08:59:16.277Z,34.17
2024-01-18T09:01:43.397Z,27.42
2024-01-18T09:04:10.140Z,25.55
2024-01-18T09:06:38.237Z,28.92
2024-01-18T09:09:05.607Z,26.52
2024-01-18T09:11:32.155Z,27.98
2024-01-18T09:13:59.281Z,27.40
2024-01-18T09:16:25.831Z,27.30
2024-01-18T09:19:01.447Z,26.13
2024-01-18T09:21:46.231Z,27.00
2024-01-18T09:24:13.671Z,29.83
2024-01-18T09:26:40.639Z,112.90
2024-01-18T09:29:07.268Z,54.38
2024-01-18T09:31:40.860Z,30.80
2024-01-18T09:34:09.708Z,29.15
2024-01-18T09:36:36.887Z,30.45
2024-01-18T09:39:04.237Z,28.85
2024-01-18T09:41:31.903Z,27.25
2024-01-18T09:44:04.568Z,27.20
2024-01-18T09:46:31.776Z,27.95
2024-01-18T09:49:02.084Z,28.83
2024-01-18T09:51:30.837Z,29.25
2024-01-18T09:53:57.622Z,25.38
2024-01-18T09:56:27.228Z,28.45
2024-01-18T09:58:54.142Z,27.33
2024-01-18T10:01:22.839Z,28.80
2024-01-18T10:03:50.531Z,31.10
2024-01-18T10:06:19.039Z,31.38
2024-01-18T10:08:46.577Z,32.03
2024-01-18T10:11:13.360Z,31.25
2024-01-18T10:13:53.493Z,31.80
2024-01-18T10:16:31.125Z,31.45
2024-01-18T10:18:58.689Z,39.13
2024-01-18T10:21:25.723Z,48.45
2024-01-18T10:23:54.332Z,32.90
2024-01-18T10:26:28.334Z,33.10
2024-01-18T10:28:54.858Z,30.55
2024-01-18T10:31:22.083Z,33.03
2024-01-18T10:33:48.980Z,32.47
2024-01-18T10:36:16.059Z,32.10
2024-01-18T10:38:43.042Z,35.80
2024-01-18T10:41:09.920Z,31.23
2024-01-18T10:43:36.985Z,34.00
2024-01-18T10:46:04.868Z,38.00
2024-01-18T10:48:32.595Z,41.85
2024-01-18T10:51:00.433Z,37.58
2024-01-18T10:53:31.135Z,39.10
2024-01-18T10:55:57.964Z,38.13
2024-01-18T10:58:24.552Z,34.67
2024-01-18T11:00:51.992Z,38.22
2024-01-18T11:03:18.753Z,35.30
2024-01-18T11:05:52.308Z,40.95
2024-01-18T11:08:19.256Z,34.67
2024-01-18T11:10:48.088Z,30.45
2024-01-18T11:13:16.562Z,29.73
2024-01-18T11:15:45.527Z,32.17
2024-01-18T11:18:14.049Z,32.65
2024-01-18T11:20:58.679Z,32.38
2024-01-18T11:23:34.132Z,33.00
2024-01-18T11:26:00.737Z,35.67
2024-01-18T11:28:28.029Z,37.67
2024-01-18T11:33:21.937Z,32.13
2024-01-18T11:35:51.994Z,34.22
2024-01-18T11:38:19.579Z,37.28
2024-01-18T11:40:47.930Z,35.17
2024-01-18T11:43:15.027Z,38.70
2024-01-18T11:45:45.617Z,37.25
2024-01-18T11:48:13.349Z,40.58
2024-01-18T11:50:40.135Z,38.35
2024-01-18T11:53:10.152Z,32.67
2024-01-18T11:55:44.564Z,28.30
2024-01-18T11:58:11.500Z,21.52
2024-01-18T12:00:38.188Z,17.48
2024-01-18T12:03:06.834Z,14.05
2024-01-18T12:05:33.371Z,14.77
2024-01-18T12:07:59.994Z,13.45
2024-01-18T12:10:27.430Z,13.13
2024-01-18T12:12:55.654Z,12.55
2024-01-18T12:15:22.851Z,14.68
2024-01-18T12:17:49.702Z,12.85
2024-01-18T12:20:18.653Z,29.05
2024-01-18T12:22:45.978Z,88.45
2024-01-18T12:25:12.474Z,30.30
2024-01-18T12:27:40.840Z,21.77
2024-01-18T12:30:08.233Z,21.52
2024-01-18T12:32:36.881Z,17.75
2024-01-18T12:35:03.928Z,13.15
2024-01-18T12:37:30.623Z,13.60
2024-01-18T12:39:57.394Z,17.90
2024-01-18T12:42:23.933Z,20.85
2024-01-18T12:44:59.021Z,21.77
2024-01-18T12:47:25.683Z,23.83
2024-01-18T12:49:56.361Z,23.25
2024-01-18T12:52:31.213Z,23.92
2024-01-18T12:54:59.372Z,23.92
2024-01-18T12:57:27.709Z,24.10
2024-01-18T12:59:54.397Z,24.40
2024-01-18T13:02:25.202Z,24.88
2024-01-18T13:04:52.315Z,24.88
2024-01-18T13:07:19.847Z,24.25
2024-01-18T13:09:47.340Z,24.00
2024-01-18T13:12:14.041Z,24.30
2024-01-18T13:14:40.556Z,26.35
2024-01-18T13:17:07.009Z,26.20
2024-01-18T13:19:33.942Z,24.95
2024-01-18T13:22:00.712Z,26.13
2024-01-18T13:24:29.449Z,24.75
2024-01-18T13:26:56.072Z,22.13
2024-01-18T13:29:22.608Z,25.30
2024-01-18T13:31:49.489Z,24.60
2024-01-18T13:34:17.206Z,27.10
2024-01-18T13:36:44.619Z,26.55
2024-01-18T13:39:12.218Z,26.48
2024-01-18T13:41:38.936Z,27.73
2024-01-18T13:44:05.665Z,26.95
2024-01-18T13:46:33.207Z,25.90
2024-01-18T13:49:00.589Z,25.15
2024-01-18T13:53:53.827Z,22.85
2024-01-18T13:56:21.674Z,22.45
2024-01-18T13:58:48.644Z,25.38
2024-01-18T14:01:15.684Z,23.63
2024-01-18T14:03:46.817Z,23.80
2024-01-18T14:06:17.530Z,26.88
2024-01-18T14:08:48.151Z,25.48
2024-01-18T14:11:16.261Z,24.80
2024-01-18T14:13:43.590Z,24.13
2024-01-18T14:16:13.074Z,24.92
2024-01-18T14:18:40.730Z,24.58
2024-01-18T14:21:08.639Z,25.38
2024-01-18T14:23:36.450Z,24.20
2024-01-18T14:26:04.795Z,22.85
2024-01-18T14:28:32.482Z,23.55
2024-01-18T14:30:59.192Z,25.48
2024-01-18T14:33:25.947Z,23.13
2024-01-18T14:35:52.619Z,24.73
2024-01-18T14:38:19.148Z,23.00
2024-01-18T14:40:47.384Z,22.33
2024-01-18T14:43:15.446Z,24.65
2024-01-18T14:45:42.805Z,21.88
2024-01-18T14:48:18.038Z,19.05
2024-01-18T14:50:46.157Z,18.73
2024-01-18T14:53:14.441Z,19.50
2024-01-18T14:55:41.243Z,20.65
2024-01-18T14:58:07.955Z,19.60
2024-01-18T15:00:38.947Z,19.85
2024-01-18T15:03:06.664Z,22.65
2024-01-18T15:05:33.439Z,22.23
2024-01-18T15:08:00.516Z,20.10
2024-01-18T15:10:27.064Z,20.65
2024-01-18T15:12:53.681Z,22.38
2024-01-18T15:15:20.287Z,22.42
2024-01-18T15:17:48.826Z,21.33
2024-01-18T15:20:17.387Z,20.60
2024-01-18T15:22:43.983Z,22.27
2024-01-18T15:25:11.398Z,21.02
2024-01-18T15:27:38.851Z,21.67
2024-01-18T15:30:06.525Z,21.65
2024-01-18T15:32:36.448Z,24.17
2024-01-18T15:35:04.837Z,24.10
2024-01-18T15:37:31.644Z,22.52
2024-01-18T15:39:58.323Z,24.80
2024-01-18T15:42:24.878Z,23.58
2024-01-18T15:44:51.490Z,22.70
2024-01-18T15:47:18.162Z,23.25
2024-01-18T15:49:45.058Z,22.80
2024-01-18T15:52:11.900Z,22.88
2024-01-18T15:54:38.548Z,21.58
2024-01-18T15:57:08.272Z,22.15
2024-01-18T15:59:34.886Z,22.95
2024-01-18T16:02:01.438Z,22.92
2024-01-18T16:04:28.314Z,24.30
2024-01-18T16:06:55.185Z,24.50
2024-01-18T16:09:22.119Z,24.13
2024-01-18T16:11:48.800Z,26.40
2024-01-18T16:14:15.301Z,27.95
2024-01-18T16:16:41.838Z,25.10
2024-01-18T16:19:08.579Z,28.35
2024-01-18T16:21:35.244Z,28.35
2024-01-18T16:24:01.880Z,29.70
2024-01-18T16:26:28.939Z,28.48
2024-01-18T16:28:55.452Z,29.40
2024-01-18T16:31:22.026Z,30.27
2024-01-18T16:33:49.293Z,31.65
2024-01-18T16:36:17.112Z,30.13
2024-01-18T16:38:43.712Z,32.78
2024-01-18T16:41:10.241Z,31.27
2024-01-18T16:43:38.139Z,33.22
2024-01-18T16:46:05.082Z,31.48
2024-01-18T16:48:31.827Z,30.83
2024-01-18T16:50:58.458Z,31.38
2024-01-18T16:53:25.074Z,32.28
2024-01-18T16:55:51.630Z,31.60
2024-01-18T16:58:19.059Z,29.55
2024-01-18T17:00:45.518Z,30.50
2024-01-18T17:03:12.107Z,31.98
2024-01-18T17:05:39.001Z,29.85
2024-01-18T17:08:08.289Z,31.33
2024-01-18T17:10:35.938Z,30.65
2024-01-18T17:13:02.814Z,31.67
2024-01-18T17:15:29.601Z,30.02
2024-01-18T17:17:56.386Z,28.38
2024-01-18T17:20:23.032Z,31.63
2024-01-18T17:22:49.548Z,31.30
2024-01-18T17:25:16.219Z,30.65
2024-01-18T17:27:42.725Z,34.45
2024-01-18T17:30:09.431Z,33.45
2024-01-18T17:32:36.002Z,34.67
2024-01-18T17:35:02.560Z,34.95
2024-01-18T17:37:29.081Z,39.53
2024-01-18T17:39:56.097Z,44.22
2024-01-18T17:42:22.587Z,40.17
2024-01-18T17:44:49.126Z,39.05
2024-01-18T17:47:16.321Z,35.42
2024-01-18T17:49:43.280Z,36.42
2024-01-18T17:52:09.935Z,35.85
2024-01-18T17:54:37.236Z,36.95
2024-01-18T17:57:04.718Z,35.67
2024-01-18T17:59:31.230Z,38.20
2024-01-18T18:01:58.946Z,39.72
2024-01-18T18:04:25.513Z,40.92
2024-01-18T18:06:53.978Z,40.53
2024-01-18T18:09:20.769Z,38.25
2024-01-18T18:11:47.452Z,37.17
2024-01-18T18:14:14.357Z,32.17
2024-01-18T18:16:40.919Z,31.00
2024-01-18T18:19:07.470Z,24.35
2024-01-18T18:21:34.000Z,25.52
2024-01-18T18:24:00.488Z,25.67
2024-01-18T18:26:27.837Z,29.55
2024-01-18T18:31:23.564Z,27.88
2024-01-18T18:33:50.276Z,26.45
2024-01-18T18:36:16.913Z,28.30
2024-01-18T18:38:43.518Z,28.00
2024-01-18T18:41:10.194Z,28.75
2024-01-18T18:43:40.810Z,27.00
2024-01-18T18:46:08.978Z,25.88
2024-01-18T18:48:36.866Z,25.80
2024-01-18T18:51:04.465Z,24.35
2024-01-18T18:55:57.867Z,24.33
2024-01-18T18:58:24.545Z,24.58
2024-01-18T19:00:51.111Z,23.42
2024-01-18T19:03:18.198Z,23.75
2024-01-18T19:05:48.014Z,23.73
2024-01-18T19:08:14.640Z,24.60
2024-01-18T19:10:41.129Z,24.95
2024-01-18T19:13:07.616Z,26.98
2024-01-18T19:15:34.743Z,27.75
2024-01-18T19:18:01.489Z,26.60
2024-01-18T19:20:28.475Z,27.08
2024-01-18T19:22:55.305Z,28.73
2024-01-18T19:25:21.893Z,30.25
2024-01-18T19:27:48.381Z,27.80
2024-01-18T19:30:17.405Z,28.83
2024-01-18T19:32:44.209Z,28.30
2024-01-18T19:35:12.991Z,27.88
2024-01-18T19:37:39.742Z,26.48
2024-01-18T19:40:07.638Z,27.67
2024-01-18T19:42:35.326Z,30.98
2024-01-18T19:45:02.083Z,28.38
2024-01-18T19:47:28.840Z,28.73
2024-01-18T19:49:55.428Z,26.77
2024-01-18T19:52:22.306Z,25.83
2024-01-18T19:54:49.953Z,25.85
2024-01-18T19:57:17.518Z,23.98
2024-01-18T19:59:44.313Z,23.25
2024-01-18T20:02:11.039Z,21.58
2024-01-18T20:04:39.105Z,22.15
2024-01-18T20:07:06.782Z,23.20
2024-01-18T20:09:34.504Z,22.20
2024-01-18T20:12:01.620Z,19.63
2024-01-18T20:14:28.495Z,19.88
2024-01-18T20:16:55.108Z,19.23
2024-01-18T20:19:21.924Z,18.08
2024-01-18T20:21:49.272Z,17.08
2024-01-18T20:24:16.683Z,15.02
2024-01-18T20:26:43.617Z,17.25
2024-01-18T20:29:10.674Z,15.57
2024-01-18T20:31:43.039Z,16.60
2024-01-18T20:34:10.713Z,15.50
2024-01-18T20:36:37.361Z,15.40
2024-01-18T20:39:04.834Z,14.52
2024-01-18T20:41:32.323Z,13.30
2024-01-18T20:43:58.977Z,15.63
2024-01-18T20:46:26.271Z,15.13
2024-01-18T20:48:52.912Z,15.25
2024-01-18T20:51:19.468Z,16.95
2024-01-18T20:53:46.058Z,16.25
2024-01-18T20:56:12.614Z,15.45
2024-01-18T20:58:39.120Z,16.42
2024-01-18T21:01:05.612Z,15.10
2024-01-18T21:03:32.342Z,15.23
2024-01-18T21:05:58.864Z,15.35
2024-01-18T21:08:25.446Z,13.70
2024-01-18T21:10:51.975Z,13.38
2024-01-18T21:13:18.476Z,13.30
2024-01-18T21:15:45.977Z,13.23
2024-01-18T21:18:12.676Z,14.73
2024-01-18T21:20:39.341Z,15.45
2024-01-18T21:23:05.933Z,14.57
2024-01-18T21:25:32.571Z,15.27
2024-01-18T21:27:59.107Z,16.27
2024-01-18T21:30:26.495Z,19.73
2024-01-18T21:37:46.633Z,16.08
2024-01-18T21:40:13.380Z,17.85
2024-01-18T21:42:39.891Z,20.85
2024-01-18T21:45:10.802Z,19.40
2024-01-18T21:47:37.423Z,20.95
2024-01-18T21:50:04.781Z,19.73
2024-01-18T21:54:58.585Z,18.20
2024-01-18T21:57:25.365Z,18.15
2024-01-18T21:59:52.256Z,18.42
2024-01-18T22:02:20.099Z,19.23
2024-01-18T22:04:46.935Z,22.13
2024-01-18T22:07:13.454Z,19.67
2024-01-18T22:09:42.570Z,18.58
2024-01-18T22:12:10.504Z,20.13
2024-01-18T22:14:37.038Z,19.13
2024-01-18T22:17:03.563Z,18.63
2024-01-18T22:19:42.486Z,19.05
2024-01-18T22:22:13.978Z,21.60
2024-01-18T22:24:40.453Z,21.38
2024-01-18T22:27:07.047Z,19.75
2024-01-18T22:29:33.634Z,19.60
2024-01-18T22:32:00.202Z,18.40
2024-01-18T22:34:26.674Z,20.55
2024-01-18T22:36:53.122Z,17.88
2024-01-18T22:39:19.610Z,18.35
2024-01-18T22:41:46.313Z,18.60
2024-01-18T22:44:12.884Z,17.50
2024-01-18T22:46:39.560Z,17.83
2024-01-18T22:49:06.676Z,20.13
2024-01-18T22:51:33.953Z,18.90
2024-01-18T22:54:01.809Z,17.67
2024-01-18T22:56:28.534Z,17.88
2024-01-18T22:58:55.122Z,17.38
2024-01-18T23:01:21.780Z,18.35
2024-01-18T23:03:49.227Z,17.13
2024-01-18T23:08:42.933Z,15.63
2024-01-18T23:11:10.048Z,16.63
2024-01-18T23:13:36.608Z,14.48
2024-01-18T23:16:04.496Z,12.48
2024-01-18T23:18:32.373Z,10.23
2024-01-18T23:20:58.858Z,11.32
2024-01-18T23:23:25.342Z,10.70
2024-01-18T23:25:51.877Z,11.13
2024-01-18T23:28:18.362Z,11.38
2024-01-18T23:30:44.860Z,11.75
2024-01-18T23:33:11.403Z,11.30
2024-01-18T23:35:38.026Z,11.57
2024-01-18T23:38:04.734Z,10.07
2024-01-18T23:40:31.209Z,10.93
2024-01-18T23:42:57.893Z,11.48
2024-01-18T23:45:24.392Z,11.80
2024-01-18T23:47:50.976Z,11.80
2024-01-18T23:50:17.764Z,13.80
2024-01-18T23:52:44.327Z,13.75
2024-01-18T23:55:10.903Z,13.50
2024-01-18T23:57:37.503Z,14.48
